Startpagina
METAR-TAF:

METAR-TAF

Vliegvelden :

Gorgan, Iran

breedte: 36-49N, lengte: 054-28E, hoogte: 155 m

Actueel weer

Dit bericht is 47 minuten geleden gemaakt, om 14:00 UTC
Weinig wind
Temperatuur 7°C
Vochtigheid 81%
Druk 1027 hPa
Zicht: 6000 m
Verspreide wolken op 1300 ft
Verspreide wolken op 2500 ft
Geheel bewolkt op 6000 ft

METAR: OING 261400Z 00000KT 6000 SCT013 SCT025 OVC060 07/04 Q1027

Tijdstip: 18:17 (14:47 UTC)


TAF: ontbreekt

Waarnemingen en weersverwachtingen van meer dan 4000 vliegvelden (METAR en TAF).

De beschikbare stations zijn de gele en rode punten op de kaart.

Ga met uw muis naar het station om de naam te zien.

Klik dan om waarnemingen en weersverwachtingen te zien.

kaart wijzigen: klik op de groene knoppen met een zwart kruis om in te zoomen, op de groene knop met een streepje om uit te zoomen of op de groene pijlen voor aangrenzende kaarten.


METAR-TAF: